sensor_id;sensor_type;location;lat;lon;timestamp;P1;durP1;ratioP1;P2;durP2;ratioP2
75941;SDS011;64622;46.220;19.878;2022-11-15T00:00:19;151.00;;;38.10;;
75941;SDS011;64622;46.220;19.878;2022-11-15T00:03:04;152.43;;;37.17;;
75941;SDS011;64622;46.220;19.878;2022-11-15T00:05:49;162.50;;;42.67;;
75941;SDS011;64622;46.220;19.878;2022-11-15T00:08:34;170.12;;;37.25;;
75941;SDS011;64622;46.220;19.878;2022-11-15T00:11:19;140.37;;;34.88;;
75941;SDS011;64622;46.220;19.878;2022-11-15T00:14:04;133.30;;;36.20;;
75941;SDS011;64622;46.220;19.878;2022-11-15T00:16:49;126.07;;;35.65;;
75941;SDS011;64622;46.220;19.878;2022-11-15T00:19:34;136.07;;;34.25;;
75941;SDS011;64622;46.220;19.878;2022-11-15T00:22:19;139.82;;;34.58;;
75941;SDS011;64622;46.220;19.878;2022-11-15T00:25:04;123.35;;;33.85;;
75941;SDS011;64622;46.220;19.878;2022-11-15T00:27:49;112.53;;;33.53;;
75941;SDS011;64622;46.220;19.878;2022-11-15T00:30:36;129.73;;;35.60;;
75941;SDS011;64622;46.220;19.878;2022-11-15T00:33:21;110.95;;;34.08;;
75941;SDS011;64622;46.220;19.878;2022-11-15T00:36:07;88.18;;;31.62;;
75941;SDS011;64622;46.220;19.878;2022-11-15T00:38:54;91.93;;;31.37;;
75941;SDS011;64622;46.220;19.878;2022-11-15T00:41:39;92.47;;;31.83;;
75941;SDS011;64622;46.220;19.878;2022-11-15T00:44:24;88.45;;;31.08;;
75941;SDS011;64622;46.220;19.878;2022-11-15T00:47:09;78.12;;;30.05;;
75941;SDS011;64622;46.220;19.878;2022-11-15T00:49:55;81.07;;;29.58;;
75941;SDS011;64622;46.220;19.878;2022-11-15T00:52:40;99.45;;;29.67;;
75941;SDS011;64622;46.220;19.878;2022-11-15T00:55:26;75.90;;;29.87;;
75941;SDS011;64622;46.220;19.878;2022-11-15T00:58:11;84.10;;;30.30;;
75941;SDS011;64622;46.220;19.878;2022-11-15T01:00:56;88.95;;;31.12;;
75941;SDS011;64622;46.220;19.878;2022-11-15T01:03:41;74.70;;;31.02;;
75941;SDS011;64622;46.220;19.878;2022-11-15T01:06:26;71.20;;;29.92;;
75941;SDS011;64622;46.220;19.878;2022-11-15T01:09:12;67.63;;;29.23;;
75941;SDS011;64622;46.220;19.878;2022-11-15T01:11:58;68.60;;;30.25;;
75941;SDS011;64622;46.220;19.878;2022-11-15T01:14:42;70.60;;;30.05;;
75941;SDS011;64622;46.220;19.878;2022-11-15T01:17:29;63.22;;;29.08;;
75941;SDS011;64622;46.220;19.878;2022-11-15T01:20:16;74.30;;;29.98;;
75941;SDS011;64622;46.220;19.878;2022-11-15T01:23:01;65.83;;;31.03;;
75941;SDS011;64622;46.220;19.878;2022-11-15T01:25:46;60.40;;;29.35;;
75941;SDS011;64622;46.220;19.878;2022-11-15T01:28:34;57.42;;;27.65;;
75941;SDS011;64622;46.220;19.878;2022-11-15T01:31:21;61.03;;;29.65;;
75941;SDS011;64622;46.220;19.878;2022-11-15T01:34:06;59.97;;;29.08;;
75941;SDS011;64622;46.220;19.878;2022-11-15T01:36:51;60.07;;;28.53;;
75941;SDS011;64622;46.220;19.878;2022-11-15T01:39:38;56.78;;;29.02;;
75941;SDS011;64622;46.220;19.878;2022-11-15T01:42:23;52.10;;;27.80;;
75941;SDS011;64622;46.220;19.878;2022-11-15T01:45:14;55.22;;;28.20;;
75941;SDS011;64622;46.220;19.878;2022-11-15T01:48:20;58.33;;;28.40;;
75941;SDS011;64622;46.220;19.878;2022-11-15T01:51:07;61.23;;;28.57;;
75941;SDS011;64622;46.220;19.878;2022-11-15T01:53:56;62.60;;;30.15;;
75941;SDS011;64622;46.220;19.878;2022-11-15T01:56:50;68.47;;;30.52;;
75941;SDS011;64622;46.220;19.878;2022-11-15T01:59:42;62.38;;;30.42;;
75941;SDS011;64622;46.220;19.878;2022-11-15T02:02:30;66.30;;;29.67;;
75941;SDS011;64622;46.220;19.878;2022-11-15T02:05:15;73.17;;;31.80;;
75941;SDS011;64622;46.220;19.878;2022-11-15T02:08:00;67.22;;;29.98;;
75941;SDS011;64622;46.220;19.878;2022-11-15T02:10:46;65.75;;;30.02;;
75941;SDS011;64622;46.220;19.878;2022-11-15T02:13:31;64.22;;;30.10;;
75941;SDS011;64622;46.220;19.878;2022-11-15T02:17:02;60.78;;;28.38;;
75941;SDS011;64622;46.220;19.878;2022-11-15T02:28:41;68.60;;;32.53;;
75941;SDS011;64622;46.220;19.878;2022-11-15T02:37:42;63.28;;;30.05;;
75941;SDS011;64622;46.220;19.878;2022-11-15T02:43:53;62.60;;;29.42;;
75941;SDS011;64622;46.220;19.878;2022-11-15T02:46:57;60.90;;;29.27;;
75941;SDS011;64622;46.220;19.878;2022-11-15T02:50:07;63.10;;;28.80;;
75941;SDS011;64622;46.220;19.878;2022-11-15T02:52:55;64.03;;;30.17;;
75941;SDS011;64622;46.220;19.878;2022-11-15T02:55:43;59.97;;;29.70;;
75941;SDS011;64622;46.220;19.878;2022-11-15T03:07:35;56.15;;;27.30;;
75941;SDS011;64622;46.220;19.878;2022-11-15T03:19:48;55.77;;;27.10;;
75941;SDS011;64622;46.220;19.878;2022-11-15T03:22:38;57.10;;;28.17;;
75941;SDS011;64622;46.220;19.878;2022-11-15T03:25:29;63.63;;;30.20;;
75941;SDS011;64622;46.220;19.878;2022-11-15T03:28:22;65.93;;;30.15;;
75941;SDS011;64622;46.220;19.878;2022-11-15T03:31:16;61.47;;;28.98;;
75941;SDS011;64622;46.220;19.878;2022-11-15T03:34:27;65.30;;;31.23;;
75941;SDS011;64622;46.220;19.878;2022-11-15T03:37:20;70.57;;;31.30;;
75941;SDS011;64622;46.220;19.878;2022-11-15T03:40:10;65.43;;;31.37;;
75941;SDS011;64622;46.220;19.878;2022-11-15T03:46:16;53.33;;;25.98;;
75941;SDS011;64622;46.220;19.878;2022-11-15T03:49:09;53.33;;;25.83;;
75941;SDS011;64622;46.220;19.878;2022-11-15T03:52:00;54.60;;;26.25;;
75941;SDS011;64622;46.220;19.878;2022-11-15T03:54:55;59.50;;;27.58;;
75941;SDS011;64622;46.220;19.878;2022-11-15T03:57:41;54.00;;;25.80;;
75941;SDS011;64622;46.220;19.878;2022-11-15T04:00:27;55.63;;;25.40;;
75941;SDS011;64622;46.220;19.878;2022-11-15T04:03:13;60.03;;;27.70;;
75941;SDS011;64622;46.220;19.878;2022-11-15T04:05:58;52.22;;;26.00;;
75941;SDS011;64622;46.220;19.878;2022-11-15T04:08:44;51.10;;;26.50;;
75941;SDS011;64622;46.220;19.878;2022-11-15T04:11:29;49.00;;;26.45;;
75941;SDS011;64622;46.220;19.878;2022-11-15T04:14:14;49.88;;;26.45;;
75941;SDS011;64622;46.220;19.878;2022-11-15T04:16:59;50.53;;;26.70;;
75941;SDS011;64622;46.220;19.878;2022-11-15T04:19:48;49.55;;;25.80;;
75941;SDS011;64622;46.220;19.878;2022-11-15T04:22:52;48.85;;;23.50;;
75941;SDS011;64622;46.220;19.878;2022-11-15T04:25:58;49.85;;;26.25;;
75941;SDS011;64622;46.220;19.878;2022-11-15T04:28:45;39.05;;;20.35;;
75941;SDS011;64622;46.220;19.878;2022-11-15T04:31:48;32.03;;;16.93;;
75941;SDS011;64622;46.220;19.878;2022-11-15T04:34:33;36.05;;;18.77;;
75941;SDS011;64622;46.220;19.878;2022-11-15T04:37:19;44.13;;;23.05;;
75941;SDS011;64622;46.220;19.878;2022-11-15T04:40:04;45.63;;;23.23;;
75941;SDS011;64622;46.220;19.878;2022-11-15T04:42:50;35.95;;;18.50;;
75941;SDS011;64622;46.220;19.878;2022-11-15T04:45:35;42.83;;;23.10;;
75941;SDS011;64622;46.220;19.878;2022-11-15T04:48:20;44.72;;;23.05;;
75941;SDS011;64622;46.220;19.878;2022-11-15T04:51:05;44.70;;;23.20;;
75941;SDS011;64622;46.220;19.878;2022-11-15T04:53:50;34.90;;;17.37;;
75941;SDS011;64622;46.220;19.878;2022-11-15T04:56:35;38.17;;;17.60;;
75941;SDS011;64622;46.220;19.878;2022-11-15T04:59:20;41.00;;;22.50;;
75941;SDS011;64622;46.220;19.878;2022-11-15T05:02:05;46.05;;;23.45;;
75941;SDS011;64622;46.220;19.878;2022-11-15T05:04:50;46.58;;;24.48;;
75941;SDS011;64622;46.220;19.878;2022-11-15T05:07:35;46.20;;;23.92;;
75941;SDS011;64622;46.220;19.878;2022-11-15T05:10:21;44.75;;;23.92;;
75941;SDS011;64622;46.220;19.878;2022-11-15T05:13:06;44.07;;;24.10;;
75941;SDS011;64622;46.220;19.878;2022-11-15T05:15:51;42.45;;;21.48;;
75941;SDS011;64622;46.220;19.878;2022-11-15T05:18:36;44.42;;;24.27;;
75941;SDS011;64622;46.220;19.878;2022-11-15T05:21:25;42.25;;;23.48;;
75941;SDS011;64622;46.220;19.878;2022-11-15T05:24:10;43.53;;;23.58;;
75941;SDS011;64622;46.220;19.878;2022-11-15T05:26:55;43.50;;;23.20;;
75941;SDS011;64622;46.220;19.878;2022-11-15T05:29:42;58.75;;;38.70;;
75941;SDS011;64622;46.220;19.878;2022-11-15T05:32:27;58.60;;;38.33;;
75941;SDS011;64622;46.220;19.878;2022-11-15T05:35:17;48.17;;;27.27;;
75941;SDS011;64622;46.220;19.878;2022-11-15T05:38:06;166.18;;;93.57;;
75941;SDS011;64622;46.220;19.878;2022-11-15T05:40:51;149.53;;;76.63;;
75941;SDS011;64622;46.220;19.878;2022-11-15T05:43:36;51.10;;;27.52;;
75941;SDS011;64622;46.220;19.878;2022-11-15T05:46:24;52.45;;;27.58;;
75941;SDS011;64622;46.220;19.878;2022-11-15T05:49:11;61.35;;;31.83;;
75941;SDS011;64622;46.220;19.878;2022-11-15T05:51:59;55.75;;;28.85;;
75941;SDS011;64622;46.220;19.878;2022-11-15T05:54:44;37.60;;;20.87;;
75941;SDS011;64622;46.220;19.878;2022-11-15T05:57:30;48.25;;;24.27;;
75941;SDS011;64622;46.220;19.878;2022-11-15T06:00:14;34.25;;;17.37;;
75941;SDS011;64622;46.220;19.878;2022-11-15T06:03:00;34.45;;;17.80;;
75941;SDS011;64622;46.220;19.878;2022-11-15T06:05:45;41.50;;;22.25;;
75941;SDS011;64622;46.220;19.878;2022-11-15T06:08:30;37.40;;;21.87;;
75941;SDS011;64622;46.220;19.878;2022-11-15T06:11:15;37.08;;;18.70;;
75941;SDS011;64622;46.220;19.878;2022-11-15T06:14:00;34.67;;;18.10;;
75941;SDS011;64622;46.220;19.878;2022-11-15T06:16:45;40.90;;;22.92;;
75941;SDS011;64622;46.220;19.878;2022-11-15T06:19:30;32.60;;;16.90;;
75941;SDS011;64622;46.220;19.878;2022-11-15T06:22:17;57.27;;;37.20;;
75941;SDS011;64622;46.220;19.878;2022-11-15T06:25:02;42.75;;;22.85;;
75941;SDS011;64622;46.220;19.878;2022-11-15T06:27:51;46.72;;;25.30;;
75941;SDS011;64622;46.220;19.878;2022-11-15T06:30:40;41.03;;;23.33;;
75941;SDS011;64622;46.220;19.878;2022-11-15T06:33:25;38.78;;;20.58;;
75941;SDS011;64622;46.220;19.878;2022-11-15T06:36:10;35.97;;;16.27;;
75941;SDS011;64622;46.220;19.878;2022-11-15T06:39:02;45.35;;;25.35;;
75941;SDS011;64622;46.220;19.878;2022-11-15T06:41:48;41.58;;;23.40;;
75941;SDS011;64622;46.220;19.878;2022-11-15T06:44:33;39.60;;;21.87;;
75941;SDS011;64622;46.220;19.878;2022-11-15T06:47:18;41.85;;;21.58;;
75941;SDS011;64622;46.220;19.878;2022-11-15T06:50:04;44.63;;;22.93;;
75941;SDS011;64622;46.220;19.878;2022-11-15T06:52:50;41.08;;;21.05;;
75941;SDS011;64622;46.220;19.878;2022-11-15T06:55:35;42.42;;;20.15;;
75941;SDS011;64622;46.220;19.878;2022-11-15T06:58:20;39.15;;;19.70;;
75941;SDS011;64622;46.220;19.878;2022-11-15T07:01:10;40.53;;;19.52;;
75941;SDS011;64622;46.220;19.878;2022-11-15T07:03:56;41.17;;;21.63;;
75941;SDS011;64622;46.220;19.878;2022-11-15T07:06:41;32.60;;;16.10;;
75941;SDS011;64622;46.220;19.878;2022-11-15T07:09:26;36.25;;;18.95;;
75941;SDS011;64622;46.220;19.878;2022-11-15T07:12:11;38.47;;;19.02;;
75941;SDS011;64622;46.220;19.878;2022-11-15T07:14:56;33.92;;;15.60;;
75941;SDS011;64622;46.220;19.878;2022-11-15T07:17:41;27.60;;;13.70;;
75941;SDS011;64622;46.220;19.878;2022-11-15T07:20:26;32.78;;;17.92;;
75941;SDS011;64622;46.220;19.878;2022-11-15T07:23:11;35.58;;;16.90;;
75941;SDS011;64622;46.220;19.878;2022-11-15T07:25:57;26.45;;;12.82;;
75941;SDS011;64622;46.220;19.878;2022-11-15T07:28:42;30.92;;;14.52;;
75941;SDS011;64622;46.220;19.878;2022-11-15T07:31:28;33.83;;;16.27;;
75941;SDS011;64622;46.220;19.878;2022-11-15T07:34:13;20.88;;;10.00;;
75941;SDS011;64622;46.220;19.878;2022-11-15T07:36:58;35.22;;;15.45;;
75941;SDS011;64622;46.220;19.878;2022-11-15T07:39:43;38.92;;;19.02;;
75941;SDS011;64622;46.220;19.878;2022-11-15T07:42:30;38.88;;;18.58;;
75941;SDS011;64622;46.220;19.878;2022-11-15T07:45:39;34.27;;;17.20;;
75941;SDS011;64622;46.220;19.878;2022-11-15T07:48:26;39.90;;;22.27;;
75941;SDS011;64622;46.220;19.878;2022-11-15T07:51:15;36.85;;;18.42;;
75941;SDS011;64622;46.220;19.878;2022-11-15T07:54:01;37.83;;;16.70;;
75941;SDS011;64622;46.220;19.878;2022-11-15T07:56:46;35.72;;;17.17;;
75941;SDS011;64622;46.220;19.878;2022-11-15T07:59:31;37.17;;;18.03;;
75941;SDS011;64622;46.220;19.878;2022-11-15T08:02:16;38.72;;;18.00;;
75941;SDS011;64622;46.220;19.878;2022-11-15T08:05:02;36.50;;;17.90;;
75941;SDS011;64622;46.220;19.878;2022-11-15T08:07:47;35.78;;;17.50;;
75941;SDS011;64622;46.220;19.878;2022-11-15T08:10:32;40.92;;;21.40;;
75941;SDS011;64622;46.220;19.878;2022-11-15T08:13:18;42.80;;;20.50;;
75941;SDS011;64622;46.220;19.878;2022-11-15T08:16:03;40.78;;;18.08;;
75941;SDS011;64622;46.220;19.878;2022-11-15T08:18:50;39.35;;;19.33;;
75941;SDS011;64622;46.220;19.878;2022-11-15T08:21:35;40.12;;;19.62;;
75941;SDS011;64622;46.220;19.878;2022-11-15T08:24:21;34.65;;;16.45;;
75941;SDS011;64622;46.220;19.878;2022-11-15T08:27:06;35.70;;;17.43;;
75941;SDS011;64622;46.220;19.878;2022-11-15T08:29:59;40.95;;;20.67;;
75941;SDS011;64622;46.220;19.878;2022-11-15T08:32:44;45.15;;;22.25;;
75941;SDS011;64622;46.220;19.878;2022-11-15T08:35:29;41.65;;;21.25;;
75941;SDS011;64622;46.220;19.878;2022-11-15T08:38:14;36.85;;;16.77;;
75941;SDS011;64622;46.220;19.878;2022-11-15T08:41:01;39.03;;;19.93;;
75941;SDS011;64622;46.220;19.878;2022-11-15T08:43:47;39.15;;;18.75;;
75941;SDS011;64622;46.220;19.878;2022-11-15T08:46:32;39.17;;;19.50;;
75941;SDS011;64622;46.220;19.878;2022-11-15T08:49:17;37.13;;;18.17;;
75941;SDS011;64622;46.220;19.878;2022-11-15T08:52:02;43.63;;;21.67;;
75941;SDS011;64622;46.220;19.878;2022-11-15T08:54:47;35.73;;;18.43;;
75941;SDS011;64622;46.220;19.878;2022-11-15T08:57:32;38.15;;;18.80;;
75941;SDS011;64622;46.220;19.878;2022-11-15T09:00:18;34.95;;;16.73;;
75941;SDS011;64622;46.220;19.878;2022-11-15T09:03:04;35.58;;;17.83;;
75941;SDS011;64622;46.220;19.878;2022-11-15T09:05:54;38.33;;;17.67;;
75941;SDS011;64622;46.220;19.878;2022-11-15T09:08:43;36.97;;;16.20;;
75941;SDS011;64622;46.220;19.878;2022-11-15T09:11:28;36.10;;;16.52;;
75941;SDS011;64622;46.220;19.878;2022-11-15T09:14:13;34.75;;;16.33;;
75941;SDS011;64622;46.220;19.878;2022-11-15T09:16:59;33.92;;;16.50;;
75941;SDS011;64622;46.220;19.878;2022-11-15T09:19:44;32.97;;;15.43;;
75941;SDS011;64622;46.220;19.878;2022-11-15T09:22:29;33.87;;;16.97;;
75941;SDS011;64622;46.220;19.878;2022-11-15T09:25:14;38.10;;;17.92;;
75941;SDS011;64622;46.220;19.878;2022-11-15T09:27:59;42.00;;;19.70;;
75941;SDS011;64622;46.220;19.878;2022-11-15T09:30:44;31.98;;;16.23;;
75941;SDS011;64622;46.220;19.878;2022-11-15T09:33:30;34.42;;;16.65;;
75941;SDS011;64622;46.220;19.878;2022-11-15T09:36:15;41.07;;;18.17;;
75941;SDS011;64622;46.220;19.878;2022-11-15T09:39:01;36.70;;;18.27;;
75941;SDS011;64622;46.220;19.878;2022-11-15T09:53:15;37.60;;;19.08;;
75941;SDS011;64622;46.220;19.878;2022-11-15T09:56:14;34.65;;;18.00;;
75941;SDS011;64622;46.220;19.878;2022-11-15T10:01:34;36.70;;;19.83;;
75941;SDS011;64622;46.220;19.878;2022-11-15T10:04:07;38.93;;;18.40;;
75941;SDS011;64622;46.220;19.878;2022-11-15T10:06:34;38.25;;;20.23;;
75941;SDS011;64622;46.220;19.878;2022-11-15T10:11:56;37.58;;;19.33;;
75941;SDS011;64622;46.220;19.878;2022-11-15T10:14:24;35.97;;;19.17;;
75941;SDS011;64622;46.220;19.878;2022-11-15T10:22:48;37.75;;;20.37;;
75941;SDS011;64622;46.220;19.878;2022-11-15T10:25:28;41.53;;;21.45;;
75941;SDS011;64622;46.220;19.878;2022-11-15T10:28:01;42.33;;;22.87;;
75941;SDS011;64622;46.220;19.878;2022-11-15T10:30:37;40.60;;;21.80;;
75941;SDS011;64622;46.220;19.878;2022-11-15T10:33:14;41.10;;;21.95;;
75941;SDS011;64622;46.220;19.878;2022-11-15T10:35:44;50.35;;;24.75;;
75941;SDS011;64622;46.220;19.878;2022-11-15T10:38:13;44.35;;;24.00;;
75941;SDS011;64622;46.220;19.878;2022-11-15T10:40:40;40.80;;;22.17;;
75941;SDS011;64622;46.220;19.878;2022-11-15T10:43:17;42.87;;;21.00;;
75941;SDS011;64622;46.220;19.878;2022-11-15T10:45:45;43.83;;;22.67;;
75941;SDS011;64622;46.220;19.878;2022-11-15T10:50:40;42.62;;;24.30;;
75941;SDS011;64622;46.220;19.878;2022-11-15T10:53:22;50.28;;;26.45;;
75941;SDS011;64622;46.220;19.878;2022-11-15T10:55:51;45.53;;;25.80;;
75941;SDS011;64622;46.220;19.878;2022-11-15T11:03:39;54.28;;;28.83;;
75941;SDS011;64622;46.220;19.878;2022-11-15T11:06:08;56.05;;;29.17;;
75941;SDS011;64622;46.220;19.878;2022-11-15T11:08:37;58.73;;;31.23;;
75941;SDS011;64622;46.220;19.878;2022-11-15T11:11:04;56.33;;;27.52;;
75941;SDS011;64622;46.220;19.878;2022-11-15T11:18:49;65.57;;;33.13;;
75941;SDS011;64622;46.220;19.878;2022-11-15T11:21:19;54.60;;;30.07;;
75941;SDS011;64622;46.220;19.878;2022-11-15T11:24:07;56.85;;;30.83;;
75941;SDS011;64622;46.220;19.878;2022-11-15T11:26:44;57.47;;;31.00;;
75941;SDS011;64622;46.220;19.878;2022-11-15T11:37:03;56.30;;;32.75;;
75941;SDS011;64622;46.220;19.878;2022-11-15T11:42:29;66.35;;;34.28;;
75941;SDS011;64622;46.220;19.878;2022-11-15T11:45:10;60.65;;;33.00;;
75941;SDS011;64622;46.220;19.878;2022-11-15T11:47:51;61.60;;;32.37;;
75941;SDS011;64622;46.220;19.878;2022-11-15T11:50:41;65.32;;;33.50;;
75941;SDS011;64622;46.220;19.878;2022-11-15T11:53:12;63.55;;;34.35;;
75941;SDS011;64622;46.220;19.878;2022-11-15T11:56:02;63.85;;;34.50;;
75941;SDS011;64622;46.220;19.878;2022-11-15T11:58:35;63.47;;;34.17;;
75941;SDS011;64622;46.220;19.878;2022-11-15T12:09:14;52.75;;;29.12;;
75941;SDS011;64622;46.220;19.878;2022-11-15T12:17:37;48.80;;;28.77;;
75941;SDS011;64622;46.220;19.878;2022-11-15T12:20:20;51.90;;;29.00;;
75941;SDS011;64622;46.220;19.878;2022-11-15T12:36:04;53.60;;;29.33;;
75941;SDS011;64622;46.220;19.878;2022-11-15T12:41:23;53.17;;;27.70;;
75941;SDS011;64622;46.220;19.878;2022-11-15T12:43:52;54.95;;;28.58;;
75941;SDS011;64622;46.220;19.878;2022-11-15T12:46:20;54.30;;;28.25;;
75941;SDS011;64622;46.220;19.878;2022-11-15T12:49:03;52.85;;;27.23;;
75941;SDS011;64622;46.220;19.878;2022-11-15T12:57:30;65.50;;;34.20;;
75941;SDS011;64622;46.220;19.878;2022-11-15T12:59:51;55.00;;;26.05;;
75941;SDS011;64622;46.220;19.878;2022-11-15T13:04:52;61.75;;;32.72;;
75941;SDS011;64622;46.220;19.878;2022-11-15T13:17:50;89.45;;;46.35;;
75941;SDS011;64622;46.220;19.878;2022-11-15T13:20:32;90.20;;;48.30;;
75941;SDS011;64622;46.220;19.878;2022-11-15T13:23:00;88.05;;;46.20;;
75941;SDS011;64622;46.220;19.878;2022-11-15T13:30:58;81.45;;;42.70;;
75941;SDS011;64622;46.220;19.878;2022-11-15T13:33:30;83.93;;;40.20;;
75941;SDS011;64622;46.220;19.878;2022-11-15T13:35:59;89.32;;;43.90;;
75941;SDS011;64622;46.220;19.878;2022-11-15T13:38:33;80.05;;;43.78;;
75941;SDS011;64622;46.220;19.878;2022-11-15T13:41:18;82.30;;;41.35;;
75941;SDS011;64622;46.220;19.878;2022-11-15T13:43:47;83.45;;;42.13;;
75941;SDS011;64622;46.220;19.878;2022-11-15T13:46:30;84.70;;;45.43;;
75941;SDS011;64622;46.220;19.878;2022-11-15T13:49:03;91.35;;;47.50;;
75941;SDS011;64622;46.220;19.878;2022-11-15T13:51:39;94.78;;;47.97;;
75941;SDS011;64622;46.220;19.878;2022-11-15T13:56:44;128.65;;;65.62;;
75941;SDS011;64622;46.220;19.878;2022-11-15T13:59:15;111.83;;;54.90;;
75941;SDS011;64622;46.220;19.878;2022-11-15T14:01:50;109.37;;;52.22;;
75941;SDS011;64622;46.220;19.878;2022-11-15T14:04:18;109.32;;;54.55;;
75941;SDS011;64622;46.220;19.878;2022-11-15T14:06:50;96.12;;;49.55;;
75941;SDS011;64622;46.220;19.878;2022-11-15T14:09:31;81.35;;;42.38;;
75941;SDS011;64622;46.220;19.878;2022-11-15T14:12:21;59.33;;;29.90;;
75941;SDS011;64622;46.220;19.878;2022-11-15T14:14:48;58.63;;;29.70;;
75941;SDS011;64622;46.220;19.878;2022-11-15T14:19:57;52.28;;;28.40;;
75941;SDS011;64622;46.220;19.878;2022-11-15T14:22:24;62.80;;;34.67;;
75941;SDS011;64622;46.220;19.878;2022-11-15T14:25:37;64.07;;;33.40;;
75941;SDS011;64622;46.220;19.878;2022-11-15T14:30:40;78.40;;;37.13;;
75941;SDS011;64622;46.220;19.878;2022-11-15T14:33:42;84.15;;;40.65;;
75941;SDS011;64622;46.220;19.878;2022-11-15T14:36:06;73.05;;;37.30;;
75941;SDS011;64622;46.220;19.878;2022-11-15T14:38:39;75.37;;;38.80;;
75941;SDS011;64622;46.220;19.878;2022-11-15T14:41:10;87.00;;;44.33;;
75941;SDS011;64622;46.220;19.878;2022-11-15T14:43:52;91.87;;;44.25;;
75941;SDS011;64622;46.220;19.878;2022-11-15T14:46:19;86.15;;;43.30;;
75941;SDS011;64622;46.220;19.878;2022-11-15T14:48:45;93.65;;;46.35;;
75941;SDS011;64622;46.220;19.878;2022-11-15T14:51:13;94.87;;;46.80;;
75941;SDS011;64622;46.220;19.878;2022-11-15T14:53:43;88.60;;;42.78;;
75941;SDS011;64622;46.220;19.878;2022-11-15T14:56:10;82.68;;;43.50;;
75941;SDS011;64622;46.220;19.878;2022-11-15T14:58:37;79.05;;;41.37;;
75941;SDS011;64622;46.220;19.878;2022-11-15T15:03:44;88.33;;;44.73;;
75941;SDS011;64622;46.220;19.878;2022-11-15T15:06:10;97.90;;;47.65;;
75941;SDS011;64622;46.220;19.878;2022-11-15T15:08:39;97.18;;;47.92;;
75941;SDS011;64622;46.220;19.878;2022-11-15T15:11:09;87.18;;;44.28;;
75941;SDS011;64622;46.220;19.878;2022-11-15T15:13:40;91.90;;;43.75;;
75941;SDS011;64622;46.220;19.878;2022-11-15T15:16:07;83.97;;;42.57;;
75941;SDS011;64622;46.220;19.878;2022-11-15T15:18:34;82.47;;;43.67;;
75941;SDS011;64622;46.220;19.878;2022-11-15T15:21:01;79.07;;;41.55;;
75941;SDS011;64622;46.220;19.878;2022-11-15T15:23:33;92.10;;;42.28;;
75941;SDS011;64622;46.220;19.878;2022-11-15T15:26:01;80.32;;;41.40;;
75941;SDS011;64622;46.220;19.878;2022-11-15T15:28:27;86.20;;;41.97;;
75941;SDS011;64622;46.220;19.878;2022-11-15T15:30:54;71.93;;;32.85;;
75941;SDS011;64622;46.220;19.878;2022-11-15T15:33:21;70.93;;;36.55;;
75941;SDS011;64622;46.220;19.878;2022-11-15T15:35:47;72.18;;;36.55;;
75941;SDS011;64622;46.220;19.878;2022-11-15T15:38:14;70.62;;;37.15;;
75941;SDS011;64622;46.220;19.878;2022-11-15T15:40:41;69.43;;;35.50;;
75941;SDS011;64622;46.220;19.878;2022-11-15T15:43:07;71.50;;;37.40;;
75941;SDS011;64622;46.220;19.878;2022-11-15T15:45:38;72.50;;;37.60;;
75941;SDS011;64622;46.220;19.878;2022-11-15T15:48:13;71.57;;;37.47;;
75941;SDS011;64622;46.220;19.878;2022-11-15T15:50:42;71.55;;;35.55;;
75941;SDS011;64622;46.220;19.878;2022-11-15T15:53:09;77.70;;;40.93;;
75941;SDS011;64622;46.220;19.878;2022-11-15T15:55:36;75.15;;;39.08;;
75941;SDS011;64622;46.220;19.878;2022-11-15T15:58:04;85.20;;;41.47;;
75941;SDS011;64622;46.220;19.878;2022-11-15T16:00:32;80.00;;;43.40;;
75941;SDS011;64622;46.220;19.878;2022-11-15T16:03:02;92.53;;;49.13;;
75941;SDS011;64622;46.220;19.878;2022-11-15T16:05:29;91.37;;;50.43;;
75941;SDS011;64622;46.220;19.878;2022-11-15T16:07:56;94.43;;;49.78;;
75941;SDS011;64622;46.220;19.878;2022-11-15T16:10:24;93.85;;;50.25;;
75941;SDS011;64622;46.220;19.878;2022-11-15T16:12:53;105.45;;;56.47;;
75941;SDS011;64622;46.220;19.878;2022-11-15T16:15:21;103.25;;;56.97;;
75941;SDS011;64622;46.220;19.878;2022-11-15T16:17:59;95.63;;;50.47;;
75941;SDS011;64622;46.220;19.878;2022-11-15T16:22:56;106.05;;;56.17;;
75941;SDS011;64622;46.220;19.878;2022-11-15T16:25:23;122.80;;;64.97;;
75941;SDS011;64622;46.220;19.878;2022-11-15T16:27:50;110.43;;;58.65;;
75941;SDS011;64622;46.220;19.878;2022-11-15T16:30:20;121.27;;;62.67;;
75941;SDS011;64622;46.220;19.878;2022-11-15T16:32:47;113.20;;;60.08;;
75941;SDS011;64622;46.220;19.878;2022-11-15T16:35:15;160.70;;;74.95;;
75941;SDS011;64622;46.220;19.878;2022-11-15T16:37:42;275.10;;;108.63;;
75941;SDS011;64622;46.220;19.878;2022-11-15T16:40:22;163.85;;;74.07;;
75941;SDS011;64622;46.220;19.878;2022-11-15T16:42:52;124.53;;;64.90;;
75941;SDS011;64622;46.220;19.878;2022-11-15T16:45:18;122.37;;;62.45;;
75941;SDS011;64622;46.220;19.878;2022-11-15T16:47:45;117.35;;;64.50;;
75941;SDS011;64622;46.220;19.878;2022-11-15T16:50:28;207.27;;;99.50;;
75941;SDS011;64622;46.220;19.878;2022-11-15T16:52:58;114.85;;;60.28;;
75941;SDS011;64622;46.220;19.878;2022-11-15T16:55:26;116.20;;;56.87;;
75941;SDS011;64622;46.220;19.878;2022-11-15T16:57:54;110.57;;;55.17;;
75941;SDS011;64622;46.220;19.878;2022-11-15T17:00:23;114.70;;;57.92;;
75941;SDS011;64622;46.220;19.878;2022-11-15T17:02:51;116.22;;;60.65;;
75941;SDS011;64622;46.220;19.878;2022-11-15T17:05:19;117.37;;;61.35;;
75941;SDS011;64622;46.220;19.878;2022-11-15T17:07:47;127.73;;;65.67;;
75941;SDS011;64622;46.220;19.878;2022-11-15T17:10:16;213.62;;;92.47;;
75941;SDS011;64622;46.220;19.878;2022-11-15T17:12:43;251.35;;;110.00;;
75941;SDS011;64622;46.220;19.878;2022-11-15T17:15:10;174.00;;;84.75;;
75941;SDS011;64622;46.220;19.878;2022-11-15T17:17:39;292.67;;;124.78;;
75941;SDS011;64622;46.220;19.878;2022-11-15T17:20:15;146.87;;;70.90;;
75941;SDS011;64622;46.220;19.878;2022-11-15T17:22:43;134.70;;;68.03;;
75941;SDS011;64622;46.220;19.878;2022-11-15T17:25:10;136.07;;;67.37;;
75941;SDS011;64622;46.220;19.878;2022-11-15T17:27:36;136.98;;;64.53;;
75941;SDS011;64622;46.220;19.878;2022-11-15T17:30:08;129.57;;;63.47;;
75941;SDS011;64622;46.220;19.878;2022-11-15T17:32:39;144.70;;;71.50;;
75941;SDS011;64622;46.220;19.878;2022-11-15T17:35:08;137.52;;;69.45;;
75941;SDS011;64622;46.220;19.878;2022-11-15T17:37:36;133.15;;;67.00;;
75941;SDS011;64622;46.220;19.878;2022-11-15T17:40:03;135.70;;;66.18;;
75941;SDS011;64622;46.220;19.878;2022-11-15T17:42:31;138.75;;;63.00;;
75941;SDS011;64622;46.220;19.878;2022-11-15T17:44:57;144.97;;;66.57;;
75941;SDS011;64622;46.220;19.878;2022-11-15T17:47:24;141.80;;;69.72;;
75941;SDS011;64622;46.220;19.878;2022-11-15T17:49:52;149.87;;;66.40;;
75941;SDS011;64622;46.220;19.878;2022-11-15T17:52:18;146.23;;;62.60;;
75941;SDS011;64622;46.220;19.878;2022-11-15T17:54:45;157.57;;;67.15;;